sensor_id;sensor_type;location;lat;lon;timestamp;P1;durP1;ratioP1;P2;durP2;ratioP2
51949;SDS011;37974;53.218;6.640;2023-04-24T00:00:27;9.95;;;6.85;;
51949;SDS011;37974;53.218;6.640;2023-04-24T00:02:53;8.52;;;6.30;;
51949;SDS011;37974;53.218;6.640;2023-04-24T00:05:24;10.52;;;7.57;;
51949;SDS011;37974;53.218;6.640;2023-04-24T00:07:52;9.35;;;5.80;;
51949;SDS011;37974;53.218;6.640;2023-04-24T00:10:22;9.27;;;6.72;;
51949;SDS011;37974;53.218;6.640;2023-04-24T00:12:52;8.43;;;6.35;;
51949;SDS011;37974;53.218;6.640;2023-04-24T00:15:41;8.75;;;5.55;;
51949;SDS011;37974;53.218;6.640;2023-04-24T00:18:38;8.45;;;5.32;;
51949;SDS011;37974;53.218;6.640;2023-04-24T00:21:06;7.75;;;5.68;;
51949;SDS011;37974;53.218;6.640;2023-04-24T00:23:41;10.43;;;5.97;;
51949;SDS011;37974;53.218;6.640;2023-04-24T00:26:09;4.95;;;3.53;;
51949;SDS011;37974;53.218;6.640;2023-04-24T00:28:35;4.78;;;2.60;;
51949;SDS011;37974;53.218;6.640;2023-04-24T00:31:03;5.65;;;1.58;;
51949;SDS011;37974;53.218;6.640;2023-04-24T00:33:29;4.00;;;1.40;;
51949;SDS011;37974;53.218;6.640;2023-04-24T00:35:55;2.78;;;1.13;;
51949;SDS011;37974;53.218;6.640;2023-04-24T00:38:23;3.17;;;0.95;;
51949;SDS011;37974;53.218;6.640;2023-04-24T00:40:52;2.83;;;1.02;;
51949;SDS011;37974;53.218;6.640;2023-04-24T00:43:19;2.90;;;1.10;;
51949;SDS011;37974;53.218;6.640;2023-04-24T00:45:45;3.13;;;0.90;;
51949;SDS011;37974;53.218;6.640;2023-04-24T00:48:14;2.35;;;1.00;;
51949;SDS011;37974;53.218;6.640;2023-04-24T00:50:42;1.67;;;0.77;;
51949;SDS011;37974;53.218;6.640;2023-04-24T00:53:16;3.20;;;0.80;;
51949;SDS011;37974;53.218;6.640;2023-04-24T00:55:44;2.25;;;0.70;;
51949;SDS011;37974;53.218;6.640;2023-04-24T00:58:12;1.00;;;0.63;;
51949;SDS011;37974;53.218;6.640;2023-04-24T01:00:41;0.82;;;0.50;;
51949;SDS011;37974;53.218;6.640;2023-04-24T01:03:08;0.88;;;0.60;;
51949;SDS011;37974;53.218;6.640;2023-04-24T01:05:36;2.72;;;0.60;;
51949;SDS011;37974;53.218;6.640;2023-04-24T01:08:01;1.70;;;0.60;;
51949;SDS011;37974;53.218;6.640;2023-04-24T01:10:28;3.00;;;0.70;;
51949;SDS011;37974;53.218;6.640;2023-04-24T01:12:56;2.08;;;0.82;;
51949;SDS011;37974;53.218;6.640;2023-04-24T01:15:22;3.25;;;0.70;;
51949;SDS011;37974;53.218;6.640;2023-04-24T01:17:51;1.20;;;0.70;;
51949;SDS011;37974;53.218;6.640;2023-04-24T01:20:17;3.78;;;0.70;;
51949;SDS011;37974;53.218;6.640;2023-04-24T01:22:43;0.90;;;0.60;;
51949;SDS011;37974;53.218;6.640;2023-04-24T01:25:18;1.23;;;0.77;;
51949;SDS011;37974;53.218;6.640;2023-04-24T01:27:44;1.23;;;0.90;;
51949;SDS011;37974;53.218;6.640;2023-04-24T01:30:13;1.48;;;0.90;;
51949;SDS011;37974;53.218;6.640;2023-04-24T01:32:39;3.65;;;1.10;;
51949;SDS011;37974;53.218;6.640;2023-04-24T01:35:31;1.38;;;0.98;;
51949;SDS011;37974;53.218;6.640;2023-04-24T01:38:20;1.27;;;0.80;;
51949;SDS011;37974;53.218;6.640;2023-04-24T01:40:46;4.07;;;0.90;;
51949;SDS011;37974;53.218;6.640;2023-04-24T01:43:17;3.08;;;0.93;;
51949;SDS011;37974;53.218;6.640;2023-04-24T01:45:43;2.08;;;1.10;;
51949;SDS011;37974;53.218;6.640;2023-04-24T01:48:09;2.78;;;1.30;;
51949;SDS011;37974;53.218;6.640;2023-04-24T01:50:48;4.05;;;1.50;;
51949;SDS011;37974;53.218;6.640;2023-04-24T01:53:14;5.43;;;1.30;;
51949;SDS011;37974;53.218;6.640;2023-04-24T01:55:42;4.47;;;1.67;;
51949;SDS011;37974;53.218;6.640;2023-04-24T01:58:08;3.05;;;1.20;;
51949;SDS011;37974;53.218;6.640;2023-04-24T02:00:34;1.77;;;1.50;;
51949;SDS011;37974;53.218;6.640;2023-04-24T02:03:02;2.15;;;1.60;;
51949;SDS011;37974;53.218;6.640;2023-04-24T02:05:28;3.03;;;1.70;;
51949;SDS011;37974;53.218;6.640;2023-04-24T02:07:54;6.63;;;2.10;;
51949;SDS011;37974;53.218;6.640;2023-04-24T02:10:20;3.95;;;2.28;;
51949;SDS011;37974;53.218;6.640;2023-04-24T02:12:46;2.50;;;2.00;;
51949;SDS011;37974;53.218;6.640;2023-04-24T02:15:13;3.67;;;2.45;;
51949;SDS011;37974;53.218;6.640;2023-04-24T02:17:40;3.40;;;2.30;;
51949;SDS011;37974;53.218;6.640;2023-04-24T02:20:06;4.07;;;2.58;;
51949;SDS011;37974;53.218;6.640;2023-04-24T02:22:32;4.60;;;3.00;;
51949;SDS011;37974;53.218;6.640;2023-04-24T02:24:58;3.85;;;3.20;;
51949;SDS011;37974;53.218;6.640;2023-04-24T02:27:23;4.03;;;3.25;;
51949;SDS011;37974;53.218;6.640;2023-04-24T02:29:49;4.38;;;3.17;;
51949;SDS011;37974;53.218;6.640;2023-04-24T02:32:15;6.60;;;4.32;;
51949;SDS011;37974;53.218;6.640;2023-04-24T02:34:41;6.20;;;5.53;;
51949;SDS011;37974;53.218;6.640;2023-04-24T02:37:06;8.75;;;7.85;;
51949;SDS011;37974;53.218;6.640;2023-04-24T02:39:32;9.68;;;8.68;;
51949;SDS011;37974;53.218;6.640;2023-04-24T02:41:58;8.98;;;8.07;;
51949;SDS011;37974;53.218;6.640;2023-04-24T02:44:24;8.85;;;7.95;;
51949;SDS011;37974;53.218;6.640;2023-04-24T02:46:49;10.65;;;7.68;;
51949;SDS011;37974;53.218;6.640;2023-04-24T02:49:15;7.28;;;6.28;;
51949;SDS011;37974;53.218;6.640;2023-04-24T02:51:41;9.02;;;6.05;;
51949;SDS011;37974;53.218;6.640;2023-04-24T02:54:07;6.30;;;5.63;;
51949;SDS011;37974;53.218;6.640;2023-04-24T02:56:39;6.60;;;5.20;;
51949;SDS011;37974;53.218;6.640;2023-04-24T02:59:04;6.15;;;5.53;;
51949;SDS011;37974;53.218;6.640;2023-04-24T03:01:33;7.90;;;5.70;;
51949;SDS011;37974;53.218;6.640;2023-04-24T03:03:59;6.03;;;5.35;;
51949;SDS011;37974;53.218;6.640;2023-04-24T03:06:24;7.38;;;6.20;;
51949;SDS011;37974;53.218;6.640;2023-04-24T03:08:52;6.45;;;5.72;;
51949;SDS011;37974;53.218;6.640;2023-04-24T03:11:18;6.47;;;5.78;;
51949;SDS011;37974;53.218;6.640;2023-04-24T03:13:46;7.07;;;6.20;;
51949;SDS011;37974;53.218;6.640;2023-04-24T03:16:14;6.70;;;6.00;;
51949;SDS011;37974;53.218;6.640;2023-04-24T03:18:46;7.85;;;6.38;;
51949;SDS011;37974;53.218;6.640;2023-04-24T03:21:43;6.95;;;6.15;;
51949;SDS011;37974;53.218;6.640;2023-04-24T03:28:18;7.50;;;6.70;;
51949;SDS011;37974;53.218;6.640;2023-04-24T03:31:51;9.27;;;8.18;;
51949;SDS011;37974;53.218;6.640;2023-04-24T03:34:19;9.25;;;8.05;;
51949;SDS011;37974;53.218;6.640;2023-04-24T03:37:11;9.68;;;8.68;;
51949;SDS011;37974;53.218;6.640;2023-04-24T03:40:02;10.02;;;9.02;;
51949;SDS011;37974;53.218;6.640;2023-04-24T03:43:17;11.23;;;10.07;;
51949;SDS011;37974;53.218;6.640;2023-04-24T04:04:15;16.25;;;11.85;;
51949;SDS011;37974;53.218;6.640;2023-04-24T04:07:49;12.67;;;10.90;;
51949;SDS011;37974;53.218;6.640;2023-04-24T04:10:41;12.77;;;11.07;;
51949;SDS011;37974;53.218;6.640;2023-04-24T04:13:39;13.25;;;10.05;;
51949;SDS011;37974;53.218;6.640;2023-04-24T04:54:31;9.95;;;7.70;;
51949;SDS011;37974;53.218;6.640;2023-04-24T04:57:28;9.98;;;7.20;;
51949;SDS011;37974;53.218;6.640;2023-04-24T04:59:54;7.80;;;6.72;;
51949;SDS011;37974;53.218;6.640;2023-04-24T05:02:21;9.35;;;6.70;;
51949;SDS011;37974;53.218;6.640;2023-04-24T05:04:47;7.72;;;6.30;;
51949;SDS011;37974;53.218;6.640;2023-04-24T05:07:38;9.02;;;6.95;;
51949;SDS011;37974;53.218;6.640;2023-04-24T05:10:06;7.93;;;6.22;;
51949;SDS011;37974;53.218;6.640;2023-04-24T05:12:43;8.73;;;7.28;;
51949;SDS011;37974;53.218;6.640;2023-04-24T05:15:31;11.82;;;9.32;;
51949;SDS011;37974;53.218;6.640;2023-04-24T05:17:57;12.90;;;11.40;;
51949;SDS011;37974;53.218;6.640;2023-04-24T05:20:23;11.38;;;9.25;;
51949;SDS011;37974;53.218;6.640;2023-04-24T05:22:51;14.00;;;10.10;;
51949;SDS011;37974;53.218;6.640;2023-04-24T05:25:39;10.93;;;6.68;;
51949;SDS011;37974;53.218;6.640;2023-04-24T05:28:06;6.93;;;6.20;;
51949;SDS011;37974;53.218;6.640;2023-04-24T05:30:33;7.78;;;6.40;;
51949;SDS011;37974;53.218;6.640;2023-04-24T05:32:59;6.35;;;5.40;;
51949;SDS011;37974;53.218;6.640;2023-04-24T05:35:25;5.97;;;4.57;;
51949;SDS011;37974;53.218;6.640;2023-04-24T05:37:50;5.90;;;4.18;;
51949;SDS011;37974;53.218;6.640;2023-04-24T05:40:19;6.70;;;4.30;;
51949;SDS011;37974;53.218;6.640;2023-04-24T05:43:24;7.18;;;4.32;;
51949;SDS011;37974;53.218;6.640;2023-04-24T05:49:16;6.60;;;4.40;;
51949;SDS011;37974;53.218;6.640;2023-04-24T05:51:45;6.28;;;4.57;;
51949;SDS011;37974;53.218;6.640;2023-04-24T05:54:14;8.20;;;4.32;;
51949;SDS011;37974;53.218;6.640;2023-04-24T05:56:40;8.13;;;4.88;;
51949;SDS011;37974;53.218;6.640;2023-04-24T05:59:08;7.00;;;4.65;;
51949;SDS011;37974;53.218;6.640;2023-04-24T06:01:37;10.10;;;4.80;;
51949;SDS011;37974;53.218;6.640;2023-04-24T06:04:03;9.45;;;4.57;;
51949;SDS011;37974;53.218;6.640;2023-04-24T06:06:29;7.90;;;4.22;;
51949;SDS011;37974;53.218;6.640;2023-04-24T06:08:56;8.93;;;4.65;;
51949;SDS011;37974;53.218;6.640;2023-04-24T06:11:25;7.20;;;4.28;;
51949;SDS011;37974;53.218;6.640;2023-04-24T06:14:14;9.60;;;4.93;;
51949;SDS011;37974;53.218;6.640;2023-04-24T06:16:53;8.10;;;4.78;;
51949;SDS011;37974;53.218;6.640;2023-04-24T06:19:49;7.07;;;4.53;;
51949;SDS011;37974;53.218;6.640;2023-04-24T06:22:46;8.40;;;5.00;;
51949;SDS011;37974;53.218;6.640;2023-04-24T06:25:15;9.45;;;5.35;;
51949;SDS011;37974;53.218;6.640;2023-04-24T06:28:46;8.10;;;5.03;;
51949;SDS011;37974;53.218;6.640;2023-04-24T06:31:14;21.77;;;13.25;;
51949;SDS011;37974;53.218;6.640;2023-04-24T06:33:41;10.20;;;6.00;;
51949;SDS011;37974;53.218;6.640;2023-04-24T06:43:21;8.02;;;5.18;;
51949;SDS011;37974;53.218;6.640;2023-04-24T06:59:03;9.73;;;5.43;;
51949;SDS011;37974;53.218;6.640;2023-04-24T07:08:54;6.85;;;2.35;;
51949;SDS011;37974;53.218;6.640;2023-04-24T07:12:04;3.88;;;2.00;;
51949;SDS011;37974;53.218;6.640;2023-04-24T07:14:55;5.18;;;1.40;;
51949;SDS011;37974;53.218;6.640;2023-04-24T07:28:09;6.00;;;2.30;;
51949;SDS011;37974;53.218;6.640;2023-04-24T07:37:40;7.35;;;2.13;;
51949;SDS011;37974;53.218;6.640;2023-04-24T07:44:24;9.20;;;2.28;;
51949;SDS011;37974;53.218;6.640;2023-04-24T07:47:12;7.93;;;3.38;;
51949;SDS011;37974;53.218;6.640;2023-04-24T07:49:45;7.30;;;3.40;;
51949;SDS011;37974;53.218;6.640;2023-04-24T07:52:11;7.82;;;3.40;;
51949;SDS011;37974;53.218;6.640;2023-04-24T07:55:13;8.65;;;3.30;;
51949;SDS011;37974;53.218;6.640;2023-04-24T07:58:07;8.32;;;2.58;;
51949;SDS011;37974;53.218;6.640;2023-04-24T08:04:00;10.35;;;2.90;;
51949;SDS011;37974;53.218;6.640;2023-04-24T08:06:29;7.65;;;2.92;;
51949;SDS011;37974;53.218;6.640;2023-04-24T08:08:55;10.52;;;3.92;;
51949;SDS011;37974;53.218;6.640;2023-04-24T08:11:44;10.27;;;4.93;;
51949;SDS011;37974;53.218;6.640;2023-04-24T08:14:10;10.05;;;5.78;;
51949;SDS011;37974;53.218;6.640;2023-04-24T08:16:54;14.95;;;6.80;;
51949;SDS011;37974;53.218;6.640;2023-04-24T08:19:21;13.60;;;6.57;;
51949;SDS011;37974;53.218;6.640;2023-04-24T08:21:46;14.20;;;7.28;;
51949;SDS011;37974;53.218;6.640;2023-04-24T08:24:18;15.32;;;8.07;;
51949;SDS011;37974;53.218;6.640;2023-04-24T08:27:30;20.65;;;11.25;;
51949;SDS011;37974;53.218;6.640;2023-04-24T08:30:23;28.70;;;13.13;;
51949;SDS011;37974;53.218;6.640;2023-04-24T08:32:49;24.95;;;14.35;;
51949;SDS011;37974;53.218;6.640;2023-04-24T08:35:15;25.33;;;13.95;;
51949;SDS011;37974;53.218;6.640;2023-04-24T08:37:41;21.58;;;12.60;;
51949;SDS011;37974;53.218;6.640;2023-04-24T08:40:12;25.20;;;13.63;;
51949;SDS011;37974;53.218;6.640;2023-04-24T08:42:57;23.45;;;11.35;;
51949;SDS011;37974;53.218;6.640;2023-04-24T08:45:25;21.67;;;11.93;;
51949;SDS011;37974;53.218;6.640;2023-04-24T08:47:53;21.42;;;11.55;;
51949;SDS011;37974;53.218;6.640;2023-04-24T08:50:20;22.45;;;11.27;;
51949;SDS011;37974;53.218;6.640;2023-04-24T08:52:49;19.35;;;11.35;;
51949;SDS011;37974;53.218;6.640;2023-04-24T08:55:18;23.77;;;12.50;;
51949;SDS011;37974;53.218;6.640;2023-04-24T08:57:45;23.20;;;10.52;;
51949;SDS011;37974;53.218;6.640;2023-04-24T09:00:16;17.58;;;10.57;;
51949;SDS011;37974;53.218;6.640;2023-04-24T09:02:43;23.20;;;12.23;;
51949;SDS011;37974;53.218;6.640;2023-04-24T09:05:10;21.73;;;10.75;;
51949;SDS011;37974;53.218;6.640;2023-04-24T09:07:37;20.30;;;11.48;;
51949;SDS011;37974;53.218;6.640;2023-04-24T09:10:13;22.48;;;10.45;;
51949;SDS011;37974;53.218;6.640;2023-04-24T09:12:43;22.58;;;11.40;;
51949;SDS011;37974;53.218;6.640;2023-04-24T09:15:10;23.48;;;11.15;;
51949;SDS011;37974;53.218;6.640;2023-04-24T09:17:43;21.80;;;10.82;;
51949;SDS011;37974;53.218;6.640;2023-04-24T09:20:14;20.67;;;11.23;;
51949;SDS011;37974;53.218;6.640;2023-04-24T09:22:41;19.77;;;10.57;;
51949;SDS011;37974;53.218;6.640;2023-04-24T09:25:08;24.88;;;11.80;;
51949;SDS011;37974;53.218;6.640;2023-04-24T09:27:41;17.08;;;10.50;;
51949;SDS011;37974;53.218;6.640;2023-04-24T09:30:10;17.27;;;9.68;;
51949;SDS011;37974;53.218;6.640;2023-04-24T09:32:37;21.27;;;8.93;;
51949;SDS011;37974;53.218;6.640;2023-04-24T09:35:11;15.63;;;9.82;;
51949;SDS011;37974;53.218;6.640;2023-04-24T09:37:39;15.02;;;8.55;;
51949;SDS011;37974;53.218;6.640;2023-04-24T09:40:14;15.10;;;8.32;;
51949;SDS011;37974;53.218;6.640;2023-04-24T09:42:45;12.73;;;7.70;;
51949;SDS011;37974;53.218;6.640;2023-04-24T09:45:16;18.95;;;6.88;;
51949;SDS011;37974;53.218;6.640;2023-04-24T09:47:42;15.98;;;6.20;;
51949;SDS011;37974;53.218;6.640;2023-04-24T09:50:40;19.83;;;6.68;;
51949;SDS011;37974;53.218;6.640;2023-04-24T09:53:11;20.00;;;7.47;;
51949;SDS011;37974;53.218;6.640;2023-04-24T09:55:39;15.50;;;7.70;;
51949;SDS011;37974;53.218;6.640;2023-04-24T09:58:08;20.42;;;7.90;;
51949;SDS011;37974;53.218;6.640;2023-04-24T10:00:41;22.20;;;7.13;;
51949;SDS011;37974;53.218;6.640;2023-04-24T10:03:56;13.77;;;6.20;;
51949;SDS011;37974;53.218;6.640;2023-04-24T10:06:22;18.95;;;6.85;;
51949;SDS011;37974;53.218;6.640;2023-04-24T10:08:47;13.10;;;5.20;;
51949;SDS011;37974;53.218;6.640;2023-04-24T10:11:42;15.32;;;5.07;;
51949;SDS011;37974;53.218;6.640;2023-04-24T10:14:13;10.70;;;3.75;;
51949;SDS011;37974;53.218;6.640;2023-04-24T10:16:46;13.57;;;4.60;;
51949;SDS011;37974;53.218;6.640;2023-04-24T10:19:25;15.30;;;4.38;;
51949;SDS011;37974;53.218;6.640;2023-04-24T10:21:51;10.20;;;3.97;;
51949;SDS011;37974;53.218;6.640;2023-04-24T10:24:20;13.50;;;4.18;;
51949;SDS011;37974;53.218;6.640;2023-04-24T10:29:37;7.78;;;3.15;;
51949;SDS011;37974;53.218;6.640;2023-04-24T10:32:08;8.65;;;2.47;;
51949;SDS011;37974;53.218;6.640;2023-04-24T10:34:57;7.68;;;2.50;;
51949;SDS011;37974;53.218;6.640;2023-04-24T10:38:00;13.57;;;2.55;;
51949;SDS011;37974;53.218;6.640;2023-04-24T10:41:06;8.88;;;3.03;;
51949;SDS011;37974;53.218;6.640;2023-04-24T10:43:33;15.95;;;3.28;;
51949;SDS011;37974;53.218;6.640;2023-04-24T10:46:05;11.10;;;3.05;;
51949;SDS011;37974;53.218;6.640;2023-04-24T10:48:32;10.65;;;2.60;;
51949;SDS011;37974;53.218;6.640;2023-04-24T10:50:58;9.57;;;3.05;;
51949;SDS011;37974;53.218;6.640;2023-04-24T10:53:27;12.70;;;2.80;;
51949;SDS011;37974;53.218;6.640;2023-04-24T10:56:10;8.75;;;2.50;;
51949;SDS011;37974;53.218;6.640;2023-04-24T10:58:50;8.53;;;2.40;;
51949;SDS011;37974;53.218;6.640;2023-04-24T11:01:29;10.40;;;2.78;;
51949;SDS011;37974;53.218;6.640;2023-04-24T11:03:58;9.82;;;2.42;;
51949;SDS011;37974;53.218;6.640;2023-04-24T11:06:31;10.75;;;2.50;;
51949;SDS011;37974;53.218;6.640;2023-04-24T11:09:07;9.05;;;3.33;;
51949;SDS011;37974;53.218;6.640;2023-04-24T11:12:06;13.65;;;2.90;;
51949;SDS011;37974;53.218;6.640;2023-04-24T11:17:48;11.10;;;2.17;;
51949;SDS011;37974;53.218;6.640;2023-04-24T11:20:17;9.00;;;2.22;;
51949;SDS011;37974;53.218;6.640;2023-04-24T11:23:15;8.98;;;2.00;;
51949;SDS011;37974;53.218;6.640;2023-04-24T11:28:48;10.50;;;2.20;;
51949;SDS011;37974;53.218;6.640;2023-04-24T11:31:34;9.90;;;2.00;;
51949;SDS011;37974;53.218;6.640;2023-04-24T11:34:07;8.55;;;2.00;;
51949;SDS011;37974;53.218;6.640;2023-04-24T11:36:40;8.68;;;1.95;;
51949;SDS011;37974;53.218;6.640;2023-04-24T11:39:09;7.25;;;1.90;;
51949;SDS011;37974;53.218;6.640;2023-04-24T11:41:37;12.88;;;2.53;;
51949;SDS011;37974;53.218;6.640;2023-04-24T11:44:03;10.60;;;1.88;;
51949;SDS011;37974;53.218;6.640;2023-04-24T11:46:34;12.50;;;2.17;;
51949;SDS011;37974;53.218;6.640;2023-04-24T11:49:08;13.85;;;2.20;;
51949;SDS011;37974;53.218;6.640;2023-04-24T11:52:00;10.88;;;2.10;;
51949;SDS011;37974;53.218;6.640;2023-04-24T11:54:29;11.00;;;1.67;;
51949;SDS011;37974;53.218;6.640;2023-04-24T11:57:05;11.25;;;1.50;;
51949;SDS011;37974;53.218;6.640;2023-04-24T12:02:38;13.95;;;1.67;;
51949;SDS011;37974;53.218;6.640;2023-04-24T12:05:36;8.95;;;1.92;;
51949;SDS011;37974;53.218;6.640;2023-04-24T12:08:05;13.38;;;2.08;;
51949;SDS011;37974;53.218;6.640;2023-04-24T12:10:32;10.48;;;1.90;;
51949;SDS011;37974;53.218;6.640;2023-04-24T12:12:58;8.95;;;1.63;;
51949;SDS011;37974;53.218;6.640;2023-04-24T12:15:25;9.52;;;2.03;;
51949;SDS011;37974;53.218;6.640;2023-04-24T12:17:52;9.40;;;1.85;;
51949;SDS011;37974;53.218;6.640;2023-04-24T12:20:35;12.52;;;2.45;;
51949;SDS011;37974;53.218;6.640;2023-04-24T12:23:01;14.13;;;1.85;;
51949;SDS011;37974;53.218;6.640;2023-04-24T12:25:28;13.07;;;1.88;;
51949;SDS011;37974;53.218;6.640;2023-04-24T12:27:57;7.53;;;1.73;;
51949;SDS011;37974;53.218;6.640;2023-04-24T12:30:41;7.53;;;1.40;;
51949;SDS011;37974;53.218;6.640;2023-04-24T12:33:12;10.90;;;2.60;;
51949;SDS011;37974;53.218;6.640;2023-04-24T12:35:52;10.00;;;1.60;;
51949;SDS011;37974;53.218;6.640;2023-04-24T12:38:24;8.00;;;1.30;;
51949;SDS011;37974;53.218;6.640;2023-04-24T12:44:33;6.47;;;1.10;;
51949;SDS011;37974;53.218;6.640;2023-04-24T12:47:22;10.20;;;1.48;;
51949;SDS011;37974;53.218;6.640;2023-04-24T12:49:52;5.38;;;1.30;;
51949;SDS011;37974;53.218;6.640;2023-04-24T12:52:31;7.97;;;1.00;;
51949;SDS011;37974;53.218;6.640;2023-04-24T12:55:16;6.57;;;1.05;;
51949;SDS011;37974;53.218;6.640;2023-04-24T12:57:42;9.30;;;1.05;;
51949;SDS011;37974;53.218;6.640;2023-04-24T13:00:16;4.30;;;0.75;;
51949;SDS011;37974;53.218;6.640;2023-04-24T13:02:58;4.50;;;1.38;;
51949;SDS011;37974;53.218;6.640;2023-04-24T13:05:30;4.15;;;1.05;;
51949;SDS011;37974;53.218;6.640;2023-04-24T13:08:01;5.78;;;0.93;;
51949;SDS011;37974;53.218;6.640;2023-04-24T13:16:45;4.90;;;1.00;;
51949;SDS011;37974;53.218;6.640;2023-04-24T13:19:24;7.28;;;1.00;;
51949;SDS011;37974;53.218;6.640;2023-04-24T13:24:22;9.23;;;1.50;;
51949;SDS011;37974;53.218;6.640;2023-04-24T13:26:50;8.40;;;1.67;;
51949;SDS011;37974;53.218;6.640;2023-04-24T13:29:16;7.70;;;1.30;;
51949;SDS011;37974;53.218;6.640;2023-04-24T13:31:46;9.07;;;1.50;;
51949;SDS011;37974;53.218;6.640;2023-04-24T13:42:31;7.20;;;1.48;;
51949;SDS011;37974;53.218;6.640;2023-04-24T13:44:58;5.75;;;0.98;;
51949;SDS011;37974;53.218;6.640;2023-04-24T13:47:24;7.30;;;0.93;;
51949;SDS011;37974;53.218;6.640;2023-04-24T13:49:51;7.40;;;1.25;;
51949;SDS011;37974;53.218;6.640;2023-04-24T13:52:28;8.00;;;1.02;;
51949;SDS011;37974;53.218;6.640;2023-04-24T13:54:57;8.18;;;0.80;;
51949;SDS011;37974;53.218;6.640;2023-04-24T13:57:25;3.88;;;0.60;;
51949;SDS011;37974;53.218;6.640;2023-04-24T14:00:08;3.28;;;0.60;;
51949;SDS011;37974;53.218;6.640;2023-04-24T14:02:35;6.07;;;0.90;;
51949;SDS011;37974;53.218;6.640;2023-04-24T14:05:23;4.07;;;0.73;;
51949;SDS011;37974;53.218;6.640;2023-04-24T14:08:08;6.07;;;0.95;;
51949;SDS011;37974;53.218;6.640;2023-04-24T14:10:44;7.97;;;1.27;;
51949;SDS011;37974;53.218;6.640;2023-04-24T14:13:13;6.28;;;1.23;;
51949;SDS011;37974;53.218;6.640;2023-04-24T14:15:58;9.43;;;1.50;;
51949;SDS011;37974;53.218;6.640;2023-04-24T14:18:26;10.13;;;1.92;;
51949;SDS011;37974;53.218;6.640;2023-04-24T14:25:18;12.10;;;2.00;;
51949;SDS011;37974;53.218;6.640;2023-04-24T14:28:19;9.82;;;1.95;;
51949;SDS011;37974;53.218;6.640;2023-04-24T14:30:48;10.57;;;1.98;;
51949;SDS011;37974;53.218;6.640;2023-04-24T14:39:58;12.23;;;2.20;;
51949;SDS011;37974;53.218;6.640;2023-04-24T14:47:14;12.93;;;2.00;;
51949;SDS011;37974;53.218;6.640;2023-04-24T14:57:22;13.88;;;2.65;;
51949;SDS011;37974;53.218;6.640;2023-04-24T15:03:30;7.80;;;2.25;;
51949;SDS011;37974;53.218;6.640;2023-04-24T15:09:58;9.65;;;2.50;;
51949;SDS011;37974;53.218;6.640;2023-04-24T15:22:54;13.60;;;2.88;;
51949;SDS011;37974;53.218;6.640;2023-04-24T15:39:46;20.23;;;3.30;;
51949;SDS011;37974;53.218;6.640;2023-04-24T15:42:47;13.73;;;3.70;;
51949;SDS011;37974;53.218;6.640;2023-04-24T15:45:46;17.45;;;4.22;;
51949;SDS011;37974;53.218;6.640;2023-04-24T15:48:50;16.63;;;3.65;;
51949;SDS011;37974;53.218;6.640;2023-04-24T15:51:48;15.48;;;3.55;;
51949;SDS011;37974;53.218;6.640;2023-04-24T16:07:45;13.57;;;4.15;;
51949;SDS011;37974;53.218;6.640;2023-04-24T16:10:30;20.45;;;4.20;;
51949;SDS011;37974;53.218;6.640;2023-04-24T16:16:00;19.20;;;4.18;;
51949;SDS011;37974;53.218;6.640;2023-04-24T16:18:36;18.38;;;4.35;;
51949;SDS011;37974;53.218;6.640;2023-04-24T16:21:03;20.27;;;4.43;;
51949;SDS011;37974;53.218;6.640;2023-04-24T16:23:33;18.58;;;4.60;;
51949;SDS011;37974;53.218;6.640;2023-04-24T16:26:02;20.23;;;5.00;;
51949;SDS011;37974;53.218;6.640;2023-04-24T16:28:34;14.05;;;4.50;;
51949;SDS011;37974;53.218;6.640;2023-04-24T17:13:39;7.68;;;2.40;;
51949;SDS011;37974;53.218;6.640;2023-04-24T17:16:08;12.43;;;2.72;;
51949;SDS011;37974;53.218;6.640;2023-04-24T17:21:51;6.57;;;1.63;;
51949;SDS011;37974;53.218;6.640;2023-04-24T17:24:21;4.72;;;1.80;;
51949;SDS011;37974;53.218;6.640;2023-04-24T17:30:08;3.45;;;1.50;;
51949;SDS011;37974;53.218;6.640;2023-04-24T17:33:09;6.07;;;1.52;;
51949;SDS011;37974;53.218;6.640;2023-04-24T17:36:03;6.70;;;2.20;;
51949;SDS011;37974;53.218;6.640;2023-04-24T17:39:13;7.43;;;2.15;;
51949;SDS011;37974;53.218;6.640;2023-04-24T17:42:36;8.85;;;2.38;;
51949;SDS011;37974;53.218;6.640;2023-04-24T17:45:28;9.10;;;1.92;;
51949;SDS011;37974;53.218;6.640;2023-04-24T17:48:53;6.03;;;2.10;;
51949;SDS011;37974;53.218;6.640;2023-04-24T17:51:21;5.15;;;1.75;;
51949;SDS011;37974;53.218;6.640;2023-04-24T17:53:47;7.88;;;1.65;;
51949;SDS011;37974;53.218;6.640;2023-04-24T17:56:18;8.55;;;1.83;;
51949;SDS011;37974;53.218;6.640;2023-04-24T17:58:48;5.40;;;1.55;;
51949;SDS011;37974;53.218;6.640;2023-04-24T18:01:16;4.68;;;1.40;;
51949;SDS011;37974;53.218;6.640;2023-04-24T18:03:45;4.90;;;1.60;;
51949;SDS011;37974;53.218;6.640;2023-04-24T18:06:33;9.77;;;2.33;;
51949;SDS011;37974;53.218;6.640;2023-04-24T18:08:59;4.90;;;1.40;;
51949;SDS011;37974;53.218;6.640;2023-04-24T18:11:30;9.13;;;1.77;;
51949;SDS011;37974;53.218;6.640;2023-04-24T18:13:59;6.53;;;2.00;;
51949;SDS011;37974;53.218;6.640;2023-04-24T18:16:25;8.63;;;2.03;;
51949;SDS011;37974;53.218;6.640;2023-04-24T18:18:51;8.82;;;2.97;;
51949;SDS011;37974;53.218;6.640;2023-04-24T18:21:18;8.98;;;2.38;;
51949;SDS011;37974;53.218;6.640;2023-04-24T18:28:31;6.15;;;1.88;;
51949;SDS011;37974;53.218;6.640;2023-04-24T18:32:37;11.05;;;2.28;;
51949;SDS011;37974;53.218;6.640;2023-04-24T18:34:55;9.25;;;2.45;;
51949;SDS011;37974;53.218;6.640;2023-04-24T18:38:19;14.27;;;2.47;;
51949;SDS011;37974;53.218;6.640;2023-04-24T18:41:15;8.82;;;2.85;;
51949;SDS011;37974;53.218;6.640;2023-04-24T18:48:01;9.10;;;2.60;;
51949;SDS011;37974;53.218;6.640;2023-04-24T19:12:30;10.57;;;3.50;;
51949;SDS011;37974;53.218;6.640;2023-04-24T19:15:51;9.20;;;3.03;;
51949;SDS011;37974;53.218;6.640;2023-04-24T19:19:34;13.07;;;3.22;;
51949;SDS011;37974;53.218;6.640;2023-04-24T19:22:23;9.07;;;3.15;;
51949;SDS011;37974;53.218;6.640;2023-04-24T19:24:58;11.90;;;3.63;;
51949;SDS011;37974;53.218;6.640;2023-04-24T19:31:57;15.90;;;3.97;;
51949;SDS011;37974;53.218;6.640;2023-04-24T19:41:40;22.25;;;4.65;;
51949;SDS011;37974;53.218;6.640;2023-04-24T19:44:31;15.57;;;4.10;;
51949;SDS011;37974;53.218;6.640;2023-04-24T19:51:15;13.82;;;3.58;;
51949;SDS011;37974;53.218;6.640;2023-04-24T19:53:47;9.85;;;2.70;;
51949;SDS011;37974;53.218;6.640;2023-04-24T19:56:16;9.07;;;1.90;;
51949;SDS011;37974;53.218;6.640;2023-04-24T20:14:30;7.45;;;2.63;;
51949;SDS011;37974;53.218;6.640;2023-04-24T20:17:41;7.28;;;2.40;;
51949;SDS011;37974;53.218;6.640;2023-04-24T20:20:40;8.85;;;2.55;;
51949;SDS011;37974;53.218;6.640;2023-04-24T20:23:06;11.65;;;2.78;;
51949;SDS011;37974;53.218;6.640;2023-04-24T20:25:37;14.18;;;3.05;;
51949;SDS011;37974;53.218;6.640;2023-04-24T20:28:02;27.60;;;3.72;;
51949;SDS011;37974;53.218;6.640;2023-04-24T20:30:57;18.13;;;4.13;;
51949;SDS011;37974;53.218;6.640;2023-04-24T20:34:03;19.63;;;4.53;;
51949;SDS011;37974;53.218;6.640;2023-04-24T20:40:48;36.30;;;6.60;;
51949;SDS011;37974;53.218;6.640;2023-04-24T20:43:39;46.83;;;6.97;;
51949;SDS011;37974;53.218;6.640;2023-04-24T20:46:07;40.35;;;7.10;;
51949;SDS011;37974;53.218;6.640;2023-04-24T20:48:58;33.38;;;7.43;;
51949;SDS011;37974;53.218;6.640;2023-04-24T20:51:49;43.30;;;6.93;;
51949;SDS011;37974;53.218;6.640;2023-04-24T20:54:51;37.85;;;6.60;;
51949;SDS011;37974;53.218;6.640;2023-04-24T20:57:42;39.97;;;7.15;;
51949;SDS011;37974;53.218;6.640;2023-04-24T21:00:30;32.65;;;6.78;;
51949;SDS011;37974;53.218;6.640;2023-04-24T21:02:56;34.08;;;6.07;;
51949;SDS011;37974;53.218;6.640;2023-04-24T21:05:22;40.95;;;7.05;;
51949;SDS011;37974;53.218;6.640;2023-04-24T21:07:48;39.47;;;6.80;;